Time;durP1;ratioP1;P1;durP2;ratioP2;P2;SDS_P1;SDS_P2;PMS_P1;PMS_P2;Temp;Humidity;BMP_temperature;BMP_pressure;BME280_temperature;BME280_humidity;BME280_pressure;Samples;Min_cycle;Max_cycle;Signal;HPM_P1;HPM_P2
2021/03/15 00:02:38;;;;;;;20.77;12.20;;;2.20;99.90;;;;;;5029261;28;20040;-67
2021/03/15 00:05:42;;;;;;;22.92;12.75;;;2.20;99.90;;;;;;5029891;28;20044;-67
2021/03/15 00:08:46;;;;;;;5.95;3.15;;;2.20;99.90;;;;;;5043302;28;20036;-67
2021/03/15 00:11:50;;;;;;;3.88;2.30;;;2.20;99.90;;;;;;5029851;28;20030;-65
2021/03/15 00:14:54;;;;;;;5.43;2.45;;;2.10;99.90;;;;;;5029817;28;20042;-64
2021/03/15 00:17:58;;;;;;;4.68;2.33;;;2.10;99.90;;;;;;5029084;28;20045;-67
2021/03/15 00:21:02;;;;;;;11.05;2.63;;;2.10;99.90;;;;;;5029494;28;20033;-67
2021/03/15 00:24:07;;;;;;;5.15;2.53;;;2.10;99.90;;;;;;5029257;28;20048;-65
2021/03/15 00:27:11;;;;;;;7.68;5.10;;;2.00;99.90;;;;;;5031590;28;20504;-67
2021/03/15 00:30:17;;;;;;;5.53;4.03;;;1.90;99.90;;;;;;5038912;28;20037;-63
2021/03/15 00:33:23;;;;;;;6.13;4.63;;;1.90;99.90;;;;;;5029333;28;20033;-66
2021/03/15 00:36:27;;;;;;;5.72;4.05;;;1.90;99.90;;;;;;5028901;28;20049;-65
2021/03/15 00:39:31;;;;;;;7.78;5.10;;;1.80;99.90;;;;;;5028916;28;20500;-65
2021/03/15 00:42:36;;;;;;;7.50;5.55;;;1.70;99.90;;;;;;5029116;28;20038;-67
2021/03/15 00:45:41;;;;;;;9.05;6.35;;;1.70;99.90;;;;;;5028859;28;20041;-66
2021/03/15 00:48:45;;;;;;;11.13;6.97;;;1.70;99.90;;;;;;5028326;28;20037;-66
2021/03/15 00:51:50;;;;;;;10.73;6.35;;;1.70;99.90;;;;;;5028808;28;20053;-65
2021/03/15 00:54:55;;;;;;;10.60;6.50;;;1.80;99.90;;;;;;5028366;28;20041;-65
2021/03/15 00:58:08;;;;;;;8.82;5.38;;;1.80;99.90;;;;;;5027607;28;20049;-65
2021/03/15 01:01:20;;;;;;;6.03;4.20;;;1.80;99.90;;;;;;5028568;28;20482;-65
2021/03/15 01:04:30;;;;;;;10.15;5.28;;;1.70;99.90;;;;;;5028392;28;20045;-66
2021/03/15 01:07:44;;;;;;;8.40;4.90;;;1.70;99.90;;;;;;5034860;28;20081;-66
2021/03/15 01:10:48;;;;;;;9.45;5.82;;;1.70;99.90;;;;;;5033787;28;20040;-66
2021/03/15 01:13:54;;;;;;;7.18;5.20;;;1.70;99.90;;;;;;5032467;28;20045;-65
2021/03/15 01:17:12;;;;;;;11.32;5.75;;;1.70;99.90;;;;;;5028019;28;20046;-67
2021/03/15 01:20:19;;;;;;;6.07;4.38;;;1.60;99.90;;;;;;5027843;28;20053;-66
2021/03/15 01:23:24;;;;;;;7.45;4.70;;;1.60;99.90;;;;;;5039326;28;20491;-66
2021/03/15 01:26:28;;;;;;;7.10;5.03;;;1.60;99.90;;;;;;5028741;28;20385;-67
2021/03/15 01:29:34;;;;;;;9.98;7.22;;;1.60;99.90;;;;;;5028568;28;20033;-66
2021/03/15 01:32:38;;;;;;;12.75;9.43;;;1.50;99.90;;;;;;5028318;28;20041;-67
2021/03/15 01:35:43;;;;;;;14.98;11.18;;;1.50;99.90;;;;;;5028839;28;20041;-67
2021/03/15 01:38:47;;;;;;;44.22;34.05;;;1.60;99.90;;;;;;5027933;28;20392;-66
2021/03/15 01:41:51;;;;;;;10.63;7.30;;;1.60;99.90;;;;;;5039064;28;20040;-66
2021/03/15 01:44:55;;;;;;;21.23;17.15;;;1.70;99.90;;;;;;5031237;28;20038;-64
2021/03/15 01:48:00;;;;;;;23.20;16.83;;;1.80;99.90;;;;;;5034942;28;20044;-67
2021/03/15 01:51:04;;;;;;;23.63;16.45;;;1.80;99.90;;;;;;5047408;28;20045;-67
2021/03/15 01:54:12;;;;;;;16.40;11.25;;;1.90;99.90;;;;;;5032858;28;20052;-66
2021/03/15 01:57:16;;;;;;;17.00;11.85;;;1.90;99.90;;;;;;5032092;28;20041;-67
2021/03/15 02:00:21;;;;;;;13.90;9.68;;;1.90;99.90;;;;;;5032159;28;20053;-67
2021/03/15 02:03:26;;;;;;;13.35;7.28;;;1.90;99.90;;;;;;5032291;28;20037;-65
2021/03/15 02:06:30;;;;;;;10.77;7.00;;;1.70;99.90;;;;;;5032347;28;20418;-66
2021/03/15 02:09:35;;;;;;;11.55;7.78;;;1.60;99.90;;;;;;5032011;28;20041;-66
2021/03/15 02:13:15;;;;;;;12.18;8.13;;;1.50;99.90;;;;;;5033531;28;20045;-66
2021/03/15 02:16:28;;;;;;;13.23;7.80;;;1.40;99.90;;;;;;5049650;28;20400;-64
2021/03/15 02:20:04;;;;;;;12.80;7.60;;;1.30;99.90;;;;;;5030406;28;20053;-64
2021/03/15 02:23:28;;;;;;;11.32;7.22;;;1.20;99.90;;;;;;5045590;28;20037;-67
2021/03/15 02:26:57;;;;;;;11.40;7.38;;;1.10;99.90;;;;;;5031426;28;20040;-66
2021/03/15 02:30:20;;;;;;;12.38;8.98;;;1.00;99.90;;;;;;5036718;28;20040;-66
2021/03/15 02:34:05;;;;;;;11.07;7.85;;;1.00;99.90;;;;;;5031567;28;20412;-67
2021/03/15 02:37:15;;;;;;;12.27;7.57;;;0.90;99.90;;;;;;5043152;28;20037;-65
2021/03/15 02:40:28;;;;;;;12.32;7.20;;;0.90;99.90;;;;;;5036752;28;20051;-65
2021/03/15 02:43:44;;;;;;;9.77;6.13;;;0.90;99.90;;;;;;5033557;28;20048;-66
2021/03/15 02:46:50;;;;;;;8.65;5.47;;;0.90;99.90;;;;;;5041240;28;20038;-67
2021/03/15 02:50:01;;;;;;;12.10;6.13;;;1.10;99.90;;;;;;5030959;28;20038;-64
2021/03/15 02:53:09;;;;;;;11.02;6.95;;;1.10;99.90;;;;;;5036100;28;20059;-66
2021/03/15 02:56:19;;;;;;;9.80;6.07;;;1.10;99.90;;;;;;5033707;28;20415;-67
2021/03/15 02:59:23;;;;;;;9.13;5.50;;;1.10;99.90;;;;;;5030930;28;20038;-67
2021/03/15 03:02:28;;;;;;;8.02;4.40;;;1.10;99.90;;;;;;5030794;28;20445;-66
2021/03/15 03:05:34;;;;;;;12.57;7.55;;;1.10;99.90;;;;;;5030533;28;20037;-67
2021/03/15 03:08:39;;;;;;;12.48;6.90;;;1.10;99.90;;;;;;5031165;28;20041;-65
2021/03/15 03:11:45;;;;;;;12.10;6.90;;;1.10;99.90;;;;;;5044114;28;20052;-66
2021/03/15 03:14:50;;;;;;;10.32;7.75;;;1.10;99.90;;;;;;5030695;28;20407;-66
2021/03/15 03:17:57;;;;;;;10.43;7.35;;;1.10;99.90;;;;;;5030250;28;20072;-67
2021/03/15 03:21:03;;;;;;;8.95;6.80;;;1.00;99.90;;;;;;5029112;28;20534;-67
2021/03/15 03:24:11;;;;;;;12.32;7.00;;;0.90;99.90;;;;;;5029912;28;20373;-66
2021/03/15 03:27:18;;;;;;;11.80;6.78;;;0.80;99.90;;;;;;5030147;28;20034;-66
2021/03/15 03:30:26;;;;;;;10.35;6.55;;;0.60;99.90;;;;;;5029749;28;20030;-66
2021/03/15 03:33:31;;;;;;;9.50;7.10;;;0.50;99.90;;;;;;5030378;28;20524;-65
2021/03/15 03:36:35;;;;;;;10.45;6.68;;;0.40;99.90;;;;;;5030050;28;20400;-65
2021/03/15 03:39:39;;;;;;;11.60;7.60;;;0.40;99.90;;;;;;5030396;28;20033;-65
2021/03/15 03:42:43;;;;;;;11.40;7.82;;;0.40;99.90;;;;;;5029917;28;20048;-66
2021/03/15 03:45:47;;;;;;;12.02;7.53;;;0.40;99.90;;;;;;5043754;28;20036;-65
2021/03/15 03:48:52;;;;;;;13.88;8.48;;;0.40;99.90;;;;;;5029918;28;20030;-63
2021/03/15 03:52:07;;;;;;;12.70;8.43;;;0.40;99.90;;;;;;5030174;28;20045;-65
2021/03/15 03:55:16;;;;;;;15.10;8.85;;;0.40;99.90;;;;;;5030246;28;20068;-67
2021/03/15 03:58:22;;;;;;;12.90;8.20;;;0.40;99.90;;;;;;5041091;28;20040;-65
2021/03/15 04:01:36;;;;;;;12.75;7.20;;;0.40;99.90;;;;;;5029774;28;20052;-65
2021/03/15 04:04:50;;;;;;;12.02;7.63;;;0.40;99.90;;;;;;5029802;28;20049;-67
2021/03/15 04:07:58;;;;;;;10.95;7.32;;;0.50;99.90;;;;;;5029664;28;20044;-65
2021/03/15 04:11:03;;;;;;;11.48;7.43;;;0.50;99.90;;;;;;5029181;28;20040;-65
2021/03/15 04:14:09;;;;;;;11.35;7.88;;;0.50;99.90;;;;;;5029551;28;20045;-65
2021/03/15 04:17:19;;;;;;;12.10;8.30;;;0.50;99.90;;;;;;5028608;28;20033;-65
2021/03/15 04:20:31;;;;;;;13.07;7.90;;;0.50;99.90;;;;;;5029723;28;20050;-66
2021/03/15 04:23:39;;;;;;;16.58;9.57;;;0.50;99.90;;;;;;5029490;28;20052;-65
2021/03/15 04:26:45;;;;;;;15.57;8.32;;;0.40;99.90;;;;;;5028826;28;20052;-66
2021/03/15 04:29:50;;;;;;;13.40;8.73;;;0.40;99.90;;;;;;5029356;28;20048;-65
2021/03/15 04:32:55;;;;;;;14.55;8.68;;;0.30;99.90;;;;;;5028853;28;20052;-65
2021/03/15 04:35:59;;;;;;;13.18;7.95;;;0.20;99.90;;;;;;5029459;28;20045;-66
2021/03/15 04:39:04;;;;;;;12.75;8.07;;;0.20;99.90;;;;;;5029242;28;20524;-66
2021/03/15 04:42:09;;;;;;;13.35;8.20;;;0.30;99.90;;;;;;5028941;28;20036;-64
2021/03/15 04:45:15;;;;;;;13.07;8.43;;;0.30;99.90;;;;;;5042398;28;20044;-67
2021/03/15 04:48:26;;;;;;;14.32;7.32;;;0.30;99.90;;;;;;5029597;28;20053;-65
2021/03/15 04:51:30;;;;;;;9.07;5.70;;;0.30;99.90;;;;;;5029109;28;20523;-67
2021/03/15 04:54:34;;;;;;;10.65;6.43;;;0.30;99.90;;;;;;5029203;28;20045;-65
2021/03/15 04:57:40;;;;;;;9.70;6.55;;;0.30;99.90;;;;;;5028907;28;20044;-66
2021/03/15 05:00:48;;;;;;;10.88;6.00;;;0.20;99.90;;;;;;5028982;28;20041;-65
2021/03/15 05:03:53;;;;;;;11.35;6.03;;;0.10;99.90;;;;;;5029065;28;20058;-65
2021/03/15 05:06:58;;;;;;;10.88;6.32;;;0.20;99.90;;;;;;5028858;28;20045;-64
2021/03/15 05:10:04;;;;;;;9.18;5.60;;;0.10;99.90;;;;;;5029307;28;20040;-66
2021/03/15 05:13:11;;;;;;;8.90;5.80;;;0.10;99.90;;;;;;5028302;28;20030;-66
2021/03/15 05:16:16;;;;;;;11.82;6.43;;;0.10;99.90;;;;;;5028819;28;20045;-66
2021/03/15 05:19:21;;;;;;;10.23;6.35;;;0.00;99.90;;;;;;5028772;28;20045;-64
2021/03/15 05:22:25;;;;;;;13.52;7.13;;;0.00;99.90;;;;;;5039408;28;20057;-66
2021/03/15 05:25:30;;;;;;;14.05;8.43;;;0.00;99.90;;;;;;5032883;28;20412;-65
2021/03/15 05:28:36;;;;;;;14.50;8.57;;;-0.10;99.90;;;;;;5032316;28;20029;-66
2021/03/15 05:31:45;;;;;;;12.25;8.07;;;-0.10;99.90;;;;;;5032003;28;20037;-66
2021/03/15 05:34:51;;;;;;;12.02;7.53;;;-0.10;99.90;;;;;;5032839;28;20053;-65
2021/03/15 05:37:55;;;;;;;12.10;6.60;;;0.00;99.90;;;;;;5032675;28;20055;-66
2021/03/15 05:41:01;;;;;;;13.10;7.97;;;0.00;99.90;;;;;;5032686;28;20431;-66
2021/03/15 05:44:34;;;;;;;17.90;8.38;;;0.00;99.90;;;;;;5036009;28;20056;-65
2021/03/15 05:47:49;;;;;;;23.33;12.57;;;0.00;99.90;;;;;;5033159;28;20049;-67
2021/03/15 05:51:12;;;;;;;36.03;11.75;;;0.10;99.90;;;;;;5044612;28;20040;-66
2021/03/15 05:54:31;;;;;;;11.95;8.02;;;0.30;99.90;;;;;;5031992;28;20048;-67
2021/03/15 05:58:07;;;;;;;13.82;8.70;;;0.40;99.90;;;;;;5032373;28;20056;-65
2021/03/15 06:01:49;;;;;;;12.35;8.05;;;0.40;99.90;;;;;;5032489;28;20058;-67
2021/03/15 06:05:11;;;;;;;14.10;8.50;;;0.40;99.90;;;;;;5045038;28;20036;-65
2021/03/15 06:08:22;;;;;;;15.77;8.60;;;0.50;99.90;;;;;;5032158;28;20263;-66
2021/03/15 06:11:32;;;;;;;10.52;6.15;;;0.50;99.90;;;;;;5037050;28;20033;-65
2021/03/15 06:14:38;;;;;;;12.32;7.75;;;0.40;99.90;;;;;;5030261;28;20602;-67
2021/03/15 06:17:44;;;;;;;9.95;6.45;;;2.00;99.90;;;;;;5028068;28;20040;-66
2021/03/15 06:20:49;;;;;;;7.78;5.00;;;5.70;99.90;;;;;;5029923;28;20029;-67
2021/03/15 06:23:58;;;;;;;9.98;4.82;;;8.90;99.90;;;;;;5033186;28;20049;-67
2021/03/15 06:27:04;;;;;;;4.57;3.80;;;11.60;99.90;;;;;;5034142;28;20037;-67
2021/03/15 06:30:09;;;;;;;6.32;3.78;;;13.30;99.90;;;;;;5034142;28;20040;-67
2021/03/15 06:33:17;;;;;;;5.30;3.28;;;13.60;99.90;;;;;;5033914;28;20047;-68
2021/03/15 06:36:23;;;;;;;9.35;5.05;;;14.20;99.20;;;;;;5035360;28;20040;-68
2021/03/15 06:39:28;;;;;;;10.07;5.50;;;13.30;97.40;;;;;;5035219;28;20416;-66
2021/03/15 06:42:34;;;;;;;6.00;4.45;;;11.50;99.90;;;;;;5035414;28;20444;-69
2021/03/15 06:45:38;;;;;;;9.35;4.47;;;12.30;99.90;;;;;;5035013;28;20032;-68
2021/03/15 06:48:43;;;;;;;8.77;5.05;;;14.20;98.40;;;;;;5037098;28;20029;-68
2021/03/15 06:52:07;;;;;;;7.70;4.10;;;15.70;96.00;;;;;;5036652;28;20041;-68
2021/03/15 06:55:11;;;;;;;5.70;3.78;;;15.90;95.40;;;;;;5036979;28;20052;-67
2021/03/15 06:58:32;;;;;;;5.88;3.80;;;15.80;95.40;;;;;;5036858;28;20040;-68
2021/03/15 07:01:43;;;;;;;5.10;3.67;;;16.60;94.40;;;;;;5035564;28;20392;-67
2021/03/15 07:04:49;;;;;;;4.90;3.80;;;17.30;93.30;;;;;;5036894;28;20044;-68
2021/03/15 07:07:56;;;;;;;5.35;3.70;;;16.40;91.90;;;;;;5039573;28;20420;-68
2021/03/15 07:11:00;;;;;;;6.85;4.18;;;13.70;93.60;;;;;;5031898;28;20055;-68
2021/03/15 07:14:05;;;;;;;4.88;4.15;;;13.10;94.10;;;;;;5032005;28;20528;-67
2021/03/15 07:17:21;;;;;;;6.22;3.67;;;12.90;95.00;;;;;;5037945;28;20408;-68
2021/03/15 07:20:46;;;;;;;4.85;3.45;;;12.90;94.50;;;;;;5031531;28;20038;-67
2021/03/15 07:23:54;;;;;;;4.93;3.63;;;14.40;94.90;;;;;;5034657;28;20048;-67
2021/03/15 07:26:58;;;;;;;5.45;4.47;;;16.00;92.20;;;;;;5046229;28;20029;-67
2021/03/15 07:30:40;;;;;;;6.43;4.30;;;16.40;90.40;;;;;;5033209;28;20528;-68
2021/03/15 07:33:51;;;;;;;6.70;5.30;;;15.90;90.60;;;;;;5032146;28;20041;-66
2021/03/15 07:37:01;;;;;;;6.68;5.38;;;12.20;94.30;;;;;;5032606;28;20043;-67
2021/03/15 07:40:06;;;;;;;5.97;4.25;;;13.20;94.40;;;;;;5044483;28;20048;-66
2021/03/15 07:43:15;;;;;;;4.78;3.60;;;13.00;94.10;;;;;;5035839;28;20037;-65
2021/03/15 07:46:29;;;;;;;4.55;3.60;;;12.60;94.40;;;;;;5037007;28;20523;-67
2021/03/15 07:49:37;;;;;;;5.18;4.13;;;14.30;94.50;;;;;;5042585;28;20048;-67
2021/03/15 07:52:42;;;;;;;6.05;4.25;;;14.10;93.90;;;;;;5030761;28;20044;-68
2021/03/15 07:55:46;;;;;;;4.90;4.10;;;16.40;92.20;;;;;;5030206;28;20399;-67
2021/03/15 07:58:51;;;;;;;5.15;4.15;;;16.50;91.20;;;;;;5013169;28;20041;-68
2021/03/15 08:01:56;;;;;;;4.97;3.40;;;16.30;92.00;;;;;;5013520;28;20049;-67
2021/03/15 08:05:00;;;;;;;4.75;4.30;;;17.00;90.10;;;;;;5012922;28;20056;-67
2021/03/15 08:08:05;;;;;;;4.35;3.83;;;15.90;90.50;;;;;;5014003;28;20041;-65
2021/03/15 08:11:14;;;;;;;4.78;3.97;;;14.00;93.10;;;;;;5023357;28;20043;-66
2021/03/15 08:14:21;;;;;;;5.88;4.53;;;13.00;93.80;;;;;;5032632;28;20056;-67
2021/03/15 08:17:28;;;;;;;7.15;4.72;;;11.90;95.70;;;;;;5019123;28;20048;-65
2021/03/15 08:20:32;;;;;;;6.70;3.97;;;11.60;95.50;;;;;;5020079;28;20044;-67
2021/03/15 08:23:43;;;;;;;4.93;3.88;;;13.50;95.40;;;;;;5025562;28;20526;-66
2021/03/15 08:26:52;;;;;;;3.90;3.08;;;14.00;95.50;;;;;;5024637;28;20040;-67
2021/03/15 08:30:01;;;;;;;6.13;3.53;;;17.70;91.20;;;;;;5025362;28;20059;-67
2021/03/15 08:33:10;;;;;;;4.38;3.13;;;17.70;87.00;;;;;;5023240;28;20758;-68
2021/03/15 08:36:17;;;;;;;5.22;4.20;;;17.70;85.50;;;;;;5017953;28;20049;-67
2021/03/15 08:39:29;;;;;;;6.13;4.18;;;16.80;87.70;;;;;;5019885;28;20047;-66
2021/03/15 08:42:37;;;;;;;6.55;3.63;;;17.60;90.40;;;;;;5036003;28;20049;-66
2021/03/15 08:45:54;;;;;;;5.93;4.15;;;21.20;81.80;;;;;;5034269;28;20398;-65
2021/03/15 08:49:07;;;;;;;4.28;3.55;;;23.20;79.20;;;;;;5034667;28;20033;-66
2021/03/15 08:52:13;;;;;;;4.22;3.55;;;22.90;72.60;;;;;;5037709;28;20041;-66
2021/03/15 08:55:46;;;;;;;5.55;3.58;;;25.50;65.50;;;;;;5046535;28;20049;-68
2021/03/15 08:58:59;;;;;;;4.43;3.85;;;22.50;64.70;;;;;;5045698;28;20043;-68
2021/03/15 09:02:05;;;;;;;4.43;3.80;;;22.30;66.70;;;;;;5032247;28;20056;-68
2021/03/15 09:05:27;;;;;;;5.30;4.55;;;22.20;67.10;;;;;;5032972;28;20036;-66
2021/03/15 09:08:57;;;;;;;5.47;4.32;;;17.20;77.30;;;;;;5039436;28;20048;-68
2021/03/15 09:12:05;;;;;;;5.55;4.30;;;18.70;75.20;;;;;;5040168;28;20047;-68
2021/03/15 09:15:34;;;;;;;5.93;4.50;;;19.80;75.20;;;;;;5048994;28;20036;-68
2021/03/15 09:18:41;;;;;;;6.35;4.13;;;17.30;74.80;;;;;;5048709;28;20045;-68
2021/03/15 09:21:57;;;;;;;6.05;4.10;;;18.70;77.30;;;;;;5041350;28;20040;-68
2021/03/15 09:25:25;;;;;;;4.18;3.70;;;21.00;73.70;;;;;;5038891;28;20041;-68
2021/03/15 09:28:45;;;;;;;5.75;4.18;;;22.00;71.60;;;;;;5042342;28;20036;-68
2021/03/15 09:32:17;;;;;;;5.45;3.40;;;24.80;67.50;;;;;;5039300;28;20060;-68
2021/03/15 09:35:40;;;;;;;5.07;3.45;;;26.10;64.30;;;;;;5041171;28;20064;-68
2021/03/15 09:38:50;;;;;;;4.97;3.95;;;27.70;60.50;;;;;;5044042;28;20037;-69
2021/03/15 09:42:00;;;;;;;4.85;3.40;;;24.30;59.10;;;;;;5047335;28;20048;-68
2021/03/15 09:45:07;;;;;;;6.10;3.47;;;25.90;61.70;;;;;;5031516;28;20040;-69
2021/03/15 09:48:19;;;;;;;3.35;3.05;;;25.60;59.30;;;;;;5035540;28;20029;-69
2021/03/15 09:51:25;;;;;;;4.88;3.53;;;26.70;58.40;;;;;;5036002;28;20033;-68
2021/03/15 09:54:55;;;;;;;3.67;3.38;;;28.30;57.40;;;;;;5039055;28;20514;-68
2021/03/15 09:58:14;;;;;;;4.03;3.22;;;27.60;58.50;;;;;;5031736;28;20037;-67
2021/03/15 10:01:24;;;;;;;3.28;2.92;;;26.80;57.00;;;;;;5030882;28;20040;-68
2021/03/15 10:04:41;;;;;;;3.38;2.75;;;26.50;57.00;;;;;;5030753;28;20041;-68
2021/03/15 10:08:10;;;;;;;4.72;3.05;;;25.60;55.40;;;;;;5031131;28;20045;-68
2021/03/15 10:11:42;;;;;;;4.75;3.95;;;25.90;55.90;;;;;;5034745;28;20037;-68
2021/03/15 10:15:12;;;;;;;4.63;3.60;;;27.80;54.40;;;;;;5025868;28;20056;-68
2021/03/15 10:18:38;;;;;;;3.83;2.95;;;26.50;53.20;;;;;;5035524;28;20514;-68
2021/03/15 10:21:48;;;;;;;4.07;3.28;;;28.30;52.20;;;;;;5041359;28;20041;-69
2021/03/15 10:24:54;;;;;;;3.25;2.63;;;30.20;52.70;;;;;;5028060;28;20055;-67
2021/03/15 10:28:05;;;;;;;3.28;2.53;;;31.70;49.70;;;;;;5033165;28;20048;-69
2021/03/15 10:31:23;;;;;;;3.60;2.20;;;33.70;47.90;;;;;;5037620;28;20040;-69
2021/03/15 10:34:30;;;;;;;1.60;1.50;;;35.10;44.70;;;;;;5034136;28;20045;-69
2021/03/15 10:37:43;;;;;;;2.28;1.65;;;33.70;42.30;;;;;;5044078;28;20056;-68
2021/03/15 10:41:15;;;;;;;3.20;1.92;;;33.00;40.60;;;;;;5042867;28;20041;-69
2021/03/15 10:44:25;;;;;;;1.80;1.27;;;32.90;41.00;;;;;;5038896;28;20044;-69
2021/03/15 10:47:42;;;;;;;1.70;1.30;;;33.40;38.20;;;;;;5032917;28;20921;-68
2021/03/15 10:50:58;;;;;;;1.70;1.10;;;34.20;39.90;;;;;;5041002;28;20036;-69
2021/03/15 10:54:39;;;;;;;3.55;1.50;;;33.90;37.50;;;;;;5043658;28;20048;-68
2021/03/15 10:58:11;;;;;;;1.10;0.80;;;31.00;38.50;;;;;;5042912;28;20040;-68
2021/03/15 11:01:31;;;;;;;0.75;0.65;;;29.90;36.20;;;;;;5039059;28;20044;-68
2021/03/15 11:04:58;;;;;;;1.65;0.80;;;28.50;36.60;;;;;;5021923;28;20060;-68
2021/03/15 11:08:19;;;;;;;1.30;1.02;;;27.70;38.30;;;;;;5036313;28;20048;-68
2021/03/15 11:11:27;;;;;;;1.25;0.70;;;26.80;40.90;;;;;;5034042;28;20043;-68
2021/03/15 11:14:40;;;;;;;3.83;0.73;;;26.50;41.40;;;;;;5034441;28;20395;-68
2021/03/15 11:18:11;;;;;;;1.35;0.80;;;26.70;40.50;;;;;;5033943;28;20044;-68
2021/03/15 11:21:21;;;;;;;3.05;0.90;;;26.60;41.10;;;;;;5033596;28;20036;-68
2021/03/15 11:24:46;;;;;;;3.72;1.63;;;26.30;41.00;;;;;;5035872;28;20045;-67
2021/03/15 11:28:01;;;;;;;2.38;1.05;;;25.80;42.70;;;;;;5024506;28;20034;-67
2021/03/15 11:31:11;;;;;;;;;;;25.50;44.20;;;;;;5017521;28;20048;-68
2021/03/15 11:34:20;;;;;;;0.63;0.40;;;25.40;40.70;;;;;;5037196;28;20734;-68
2021/03/15 11:37:32;;;;;;;1.25;0.70;;;25.60;39.60;;;;;;5035469;28;20062;-67
2021/03/15 11:40:45;;;;;;;0.60;0.50;;;25.50;41.70;;;;;;5024647;28;20439;-67
2021/03/15 11:44:01;;;;;;;1.38;0.60;;;25.30;40.30;;;;;;5020633;28;20049;-67
2021/03/15 11:47:06;;;;;;;1.33;0.60;;;25.30;39.20;;;;;;5032497;28;20059;-67
2021/03/15 11:50:31;;;;;;;1.23;0.80;;;24.80;38.40;;;;;;5018751;28;20044;-67
2021/03/15 11:53:43;;;;;;;2.03;0.80;;;24.80;39.40;;;;;;5020465;28;20060;-68
2021/03/15 11:56:48;;;;;;;0.77;0.60;;;24.60;41.40;;;;;;5020536;28;20048;-67
2021/03/15 11:59:53;;;;;;;1.10;0.70;;;24.50;40.20;;;;;;5019617;28;20037;-65
2021/03/15 12:03:04;;;;;;;1.02;0.68;;;24.70;40.70;;;;;;5024747;28;20037;-66
2021/03/15 12:06:28;;;;;;;0.95;0.77;;;25.30;40.30;;;;;;5033184;28;20041;-67
2021/03/15 12:09:45;;;;;;;1.35;0.80;;;25.20;39.60;;;;;;5033071;28;20036;-67
2021/03/15 12:12:49;;;;;;;2.55;0.80;;;25.00;41.10;;;;;;5045702;28;20055;-68
2021/03/15 12:15:54;;;;;;;1.25;0.88;;;25.10;40.50;;;;;;5035241;28;20048;-67
2021/03/15 12:18:58;;;;;;;1.55;1.13;;;24.80;41.70;;;;;;5032998;28;20029;-67
2021/03/15 12:22:07;;;;;;;2.63;1.05;;;24.10;42.90;;;;;;5029008;28;20050;-68
2021/03/15 12:25:40;;;;;;;3.60;1.35;;;23.50;42.70;;;;;;5035905;28;20052;-66
2021/03/15 12:29:13;;;;;;;3.72;0.90;;;19.30;43.60;;;;;;5030083;28;20040;-64
2021/03/15 12:32:22;;;;;;;4.80;1.15;;;20.50;48.20;;;;;;5028669;28;20404;-66
2021/03/15 12:35:28;;;;;;;2.42;1.30;;;22.80;44.50;;;;;;5045448;28;20044;-67
2021/03/15 12:38:34;;;;;;;1.83;1.20;;;24.70;42.20;;;;;;5047477;28;20051;-67
2021/03/15 12:41:40;;;;;;;2.10;1.20;;;28.20;41.70;;;;;;5029902;28;20508;-67
2021/03/15 12:44:45;;;;;;;1.98;1.30;;;30.80;39.20;;;;;;5039834;28;20399;-67
2021/03/15 12:47:51;;;;;;;2.65;1.80;;;31.60;38.40;;;;;;5034427;28;20411;-67
2021/03/15 12:50:55;;;;;;;2.70;1.98;;;30.90;38.10;;;;;;5028000;28;20048;-67
2021/03/15 12:54:03;;;;;;;1.83;1.13;;;28.90;39.60;;;;;;5035914;28;20056;-67
2021/03/15 12:57:20;;;;;;;1.65;1.00;;;27.10;38.70;;;;;;5034175;28;20049;-68
2021/03/15 13:00:39;;;;;;;1.45;0.85;;;25.80;40.50;;;;;;5031816;28;20037;-69
2021/03/15 13:04:00;;;;;;;1.38;0.90;;;23.40;39.10;;;;;;5032497;28;20377;-68
2021/03/15 13:07:09;;;;;;;3.10;1.08;;;21.40;41.30;;;;;;5032866;28;20043;-68
2021/03/15 13:10:36;;;;;;;3.33;1.00;;;20.80;39.30;;;;;;5034389;28;20064;-69
2021/03/15 13:13:41;;;;;;;3.80;1.13;;;22.90;40.70;;;;;;5031160;28;20048;-69
2021/03/15 13:16:45;;;;;;;1.73;1.10;;;24.00;41.50;;;;;;5032608;28;20631;-68
2021/03/15 13:19:50;;;;;;;2.58;0.95;;;24.20;42.60;;;;;;5033505;28;20037;-68
2021/03/15 13:22:54;;;;;;;2.38;1.00;;;24.80;41.20;;;;;;5038681;28;20553;-68
2021/03/15 13:26:10;;;;;;;2.35;1.00;;;25.50;41.00;;;;;;5035903;28;20040;-67
2021/03/15 13:29:26;;;;;;;1.65;1.00;;;26.30;41.20;;;;;;5030015;28;20047;-67
2021/03/15 13:32:31;;;;;;;2.60;0.90;;;26.90;38.90;;;;;;5027680;28;20040;-68
2021/03/15 13:35:40;;;;;;;4.63;1.27;;;26.00;39.40;;;;;;5037216;28;20032;-69
2021/03/15 13:38:44;;;;;;;4.07;1.15;;;25.20;41.20;;;;;;5040340;28;20045;-68
2021/03/15 13:41:51;;;;;;;2.72;1.40;;;24.30;42.00;;;;;;5032959;28;20044;-68
2021/03/15 13:45:19;;;;;;;3.92;1.63;;;24.10;40.90;;;;;;5046193;28;20045;-67
2021/03/15 13:48:24;;;;;;;2.40;1.40;;;24.00;42.20;;;;;;5050438;28;20040;-68
2021/03/15 13:51:29;;;;;;;2.65;1.90;;;23.80;44.10;;;;;;5039936;28;20043;-68
2021/03/15 13:54:37;;;;;;;3.13;1.95;;;23.70;43.60;;;;;;5037651;28;20541;-68
2021/03/15 13:57:42;;;;;;;3.30;1.95;;;23.50;42.80;;;;;;5051372;28;20048;-68
2021/03/15 14:00:54;;;;;;;8.63;2.00;;;23.60;43.10;;;;;;5051220;28;20056;-67
2021/03/15 14:04:17;;;;;;;3.50;1.70;;;23.30;44.10;;;;;;5025042;28;20057;-68
2021/03/15 14:07:28;;;;;;;4.13;2.10;;;23.20;46.70;;;;;;5020515;28;20049;-68
2021/03/15 14:10:40;;;;;;;4.25;1.85;;;23.20;42.70;;;;;;5022243;28;20507;-66
2021/03/15 14:13:50;;;;;;;4.20;2.13;;;24.00;42.70;;;;;;5041872;28;20407;-66
2021/03/15 14:16:56;;;;;;;3.65;2.33;;;24.10;41.90;;;;;;5034593;28;20040;-68
2021/03/15 14:20:02;;;;;;;3.47;2.42;;;25.10;42.30;;;;;;5032208;28;20045;-68
2021/03/15 14:23:09;;;;;;;5.05;1.50;;;24.50;41.00;;;;;;5041864;28;20040;-68
2021/03/15 14:26:15;;;;;;;2.33;1.10;;;23.70;43.30;;;;;;5035768;28;20040;-68
2021/03/15 14:29:28;;;;;;;2.22;1.30;;;23.50;43.10;;;;;;5040353;28;20620;-68
2021/03/15 14:32:52;;;;;;;3.70;1.55;;;23.40;43.40;;;;;;5038441;28;20042;-67
2021/03/15 14:36:05;;;;;;;3.38;1.65;;;23.60;44.30;;;;;;5036049;28;20044;-68
2021/03/15 14:39:29;;;;;;;2.58;1.20;;;24.60;43.40;;;;;;5032015;28;20049;-67
2021/03/15 14:42:34;;;;;;;2.90;1.30;;;25.10;42.80;;;;;;5035293;28;20399;-68
2021/03/15 14:45:52;;;;;;;3.17;1.10;;;25.00;42.20;;;;;;5010771;28;20048;-68
2021/03/15 14:49:02;;;;;;;3.25;0.60;;;24.40;41.30;;;;;;5021188;28;20511;-68
2021/03/15 14:52:13;;;;;;;0.95;0.70;;;23.00;43.90;;;;;;5025687;28;20044;-67
2021/03/15 14:55:20;;;;;;;1.30;0.68;;;22.60;45.70;;;;;;5014300;28;20060;-66
2021/03/15 14:58:24;;;;;;;1.52;0.60;;;22.80;45.60;;;;;;5021218;28;20045;-68
2021/03/15 15:01:32;;;;;;;4.38;0.85;;;20.30;47.00;;;;;;5023146;28;20790;-68
2021/03/15 15:04:45;;;;;;;1.90;0.88;;;18.60;49.60;;;;;;5017005;28;20040;-68
2021/03/15 15:07:51;;;;;;;2.58;0.90;;;18.40;53.50;;;;;;5024474;28;20033;-66
2021/03/15 15:11:14;;;;;;;6.18;1.00;;;18.90;53.40;;;;;;5027579;28;20060;-67
2021/03/15 15:14:18;;;;;;;2.30;0.95;;;18.80;51.50;;;;;;5017864;28;20038;-68
2021/03/15 15:17:24;;;;;;;1.92;1.02;;;18.60;53.00;;;;;;5023212;28;20044;-68
2021/03/15 15:20:46;;;;;;;2.05;1.00;;;18.50;53.40;;;;;;5022001;28;20057;-67
2021/03/15 15:23:52;;;;;;;3.47;0.82;;;18.20;53.90;;;;;;5018055;28;20041;-68
2021/03/15 15:26:56;;;;;;;3.67;1.02;;;17.70;56.10;;;;;;5020822;28;20048;-68
2021/03/15 15:30:01;;;;;;;5.35;1.10;;;17.30;56.40;;;;;;5028240;28;20606;-69
2021/03/15 15:33:06;;;;;;;3.83;0.90;;;18.00;56.80;;;;;;5032471;28;20051;-67
2021/03/15 15:36:10;;;;;;;3.75;1.25;;;18.10;56.80;;;;;;5045053;28;20530;-68
2021/03/15 15:39:14;;;;;;;2.42;1.08;;;18.20;56.10;;;;;;5049478;28;20064;-68
2021/03/15 15:42:18;;;;;;;2.17;0.93;;;17.90;58.00;;;;;;5038979;28;20048;-69
2021/03/15 15:45:22;;;;;;;2.20;0.70;;;18.10;58.40;;;;;;5035758;28;20048;-68
2021/03/15 15:48:27;;;;;;;6.93;1.15;;;17.60;56.90;;;;;;5033195;28;20053;-66
2021/03/15 15:51:31;;;;;;;5.70;1.27;;;17.00;56.50;;;;;;5040052;28;20052;-66
2021/03/15 15:54:40;;;;;;;7.03;1.20;;;16.50;59.30;;;;;;5035456;28;20048;-68
2021/03/15 15:57:46;;;;;;;5.13;1.02;;;16.30;58.60;;;;;;5044841;28;20530;-68
2021/03/15 16:00:50;;;;;;;3.83;1.10;;;16.00;59.80;;;;;;5034066;28;20505;-68
2021/03/15 16:03:54;;;;;;;7.80;0.98;;;15.20;61.40;;;;;;5028340;28;20045;-68
2021/03/15 16:06:59;;;;;;;6.22;1.20;;;15.50;62.40;;;;;;5027409;28;20036;-68
2021/03/15 16:10:04;;;;;;;5.20;1.00;;;15.30;60.00;;;;;;5033753;28;20350;-68
2021/03/15 16:13:10;;;;;;;6.32;1.30;;;14.80;61.70;;;;;;5030413;28;20461;-68
2021/03/15 16:16:15;;;;;;;3.38;1.15;;;14.70;60.70;;;;;;5027388;28;20052;-68
2021/03/15 16:19:19;;;;;;;7.40;1.33;;;14.60;61.20;;;;;;5025613;28;20079;-68
2021/03/15 16:22:24;;;;;;;7.30;1.40;;;14.50;62.90;;;;;;5027212;28;20029;-67
2021/03/15 16:25:29;;;;;;;9.60;1.83;;;14.40;63.90;;;;;;5038308;28;20541;-67
2021/03/15 16:28:33;;;;;;;5.90;1.50;;;14.20;65.10;;;;;;5043216;28;20040;-67
2021/03/15 16:31:37;;;;;;;7.03;1.30;;;14.00;65.60;;;;;;5039172;28;20048;-68
2021/03/15 16:34:41;;;;;;;9.88;1.30;;;13.80;65.80;;;;;;5043227;28;20052;-67